Time;durP1;ratioP1;P1;durP2;ratioP2;P2;SDS_P1;SDS_P2;PMS_P1;PMS_P2;Temp;Humidity;BMP_temperature;BMP_pressure;BME280_temperature;BME280_humidity;BME280_pressure;Samples;Min_cycle;Max_cycle;Signal;HPM_P1;HPM_P2
2021/05/28 00:01:47;;;;;;;6.60;4.90;;;16.30;99.90;;;16.82;53.33;101841.34;4934665;28;97635;-61
2021/05/28 00:04:13;;;;;;;4.70;3.27;;;16.20;99.90;;;16.81;53.05;101836.06;4930017;28;113670;-62
2021/05/28 00:06:39;;;;;;;6.30;4.60;;;16.30;99.90;;;16.80;53.48;101832.53;4949002;28;98755;-62
2021/05/28 00:09:05;;;;;;;9.30;5.20;;;16.20;99.90;;;16.78;53.33;101834.41;4929893;28;97264;-62
2021/05/28 00:11:31;;;;;;;5.20;3.03;;;16.20;99.90;;;16.76;53.56;101841.59;4931698;28;98660;-62
2021/05/28 00:13:57;;;;;;;5.93;4.60;;;16.20;99.90;;;16.75;53.22;101839.84;4961250;28;99851;-62
2021/05/28 00:16:25;;;;;;;5.03;4.50;;;16.20;99.90;;;16.73;53.25;101839.06;4927884;28;100074;-63
2021/05/28 00:18:52;;;;;;;2.10;1.90;;;16.10;99.90;;;16.74;53.42;101838.13;4927275;28;98057;-60
2021/05/28 00:21:18;;;;;;;10.50;7.73;;;16.20;99.90;;;16.75;53.52;101839.84;4948332;28;98212;-60
2021/05/28 00:23:44;;;;;;;9.33;6.53;;;16.20;99.90;;;16.73;53.60;101841.72;4922958;28;100918;-62
2021/05/28 00:26:10;;;;;;;3.57;2.27;;;16.10;99.90;;;16.69;53.81;101840.13;4932642;28;109701;-62
2021/05/28 00:28:36;;;;;;;5.97;4.43;;;16.00;99.90;;;16.68;53.71;101849.06;4926862;28;98488;-62
2021/05/28 00:31:02;;;;;;;8.07;5.87;;;16.00;99.90;;;16.69;53.42;101845.44;4930921;28;96948;-62
2021/05/28 00:33:28;;;;;;;4.23;3.47;;;16.10;99.90;;;16.71;53.68;101846.25;4912936;28;100514;-60
2021/05/28 00:35:54;;;;;;;4.80;3.80;;;16.10;99.90;;;16.71;53.59;101842.72;4961148;28;97306;-62
2021/05/28 00:38:20;;;;;;;7.50;5.00;;;16.10;99.90;;;16.69;53.76;101850.78;4927874;28;97264;-65
2021/05/28 00:40:46;;;;;;;3.67;2.70;;;16.10;99.90;;;16.70;53.71;101855.19;4925916;28;97951;-62
2021/05/28 00:43:11;;;;;;;1.60;1.40;;;16.10;99.90;;;16.72;53.56;101842.66;4931347;28;100447;-62
2021/05/28 00:45:37;;;;;;;2.80;2.50;;;16.20;99.90;;;16.77;53.34;101842.44;4923797;28;97096;-62
2021/05/28 00:48:04;;;;;;;5.60;4.37;;;16.30;99.90;;;16.77;53.33;101848.63;4929731;28;97293;-60
2021/05/28 00:50:30;;;;;;;11.80;9.50;;;16.30;99.90;;;16.74;53.43;101854.09;4955520;28;97498;-62
2021/05/28 00:52:58;;;;;;;10.23;8.20;;;16.10;99.90;;;16.71;53.53;101848.03;4929655;28;100518;-62
2021/05/28 00:55:27;;;;;;;5.00;4.40;;;16.00;99.90;;;16.69;53.56;101850.78;4920233;28;100046;-60
2021/05/28 00:57:55;;;;;;;4.90;4.50;;;16.00;99.90;;;16.66;53.68;101858.88;4944243;28;97191;-63
2021/05/28 01:00:27;;;;;;;4.00;2.00;;;16.00;99.90;;;16.68;53.80;101862.38;4922394;28;97091;-63
2021/05/28 01:02:53;;;;;;;5.50;3.53;;;16.10;99.90;;;16.68;53.81;101864.16;4926889;28;100012;-60
2021/05/28 01:05:19;;;;;;;12.90;9.47;;;16.10;99.90;;;16.69;53.82;101866.75;4955411;28;97096;-62
2021/05/28 01:07:46;;;;;;;9.97;7.30;;;16.10;99.90;;;16.69;53.81;101866.75;4941206;28;97740;-63
2021/05/28 01:10:14;;;;;;;4.63;4.17;;;16.10;99.90;;;16.71;53.73;101869.38;4926865;28;97546;-63
2021/05/28 01:12:41;;;;;;;3.57;1.90;;;16.10;99.90;;;16.72;53.77;101866.63;4926186;28;97571;-63
2021/05/28 01:15:09;;;;;;;2.77;2.20;;;16.10;99.90;;;16.74;53.52;101867.44;4916451;28;100389;-63
2021/05/28 01:17:35;;;;;;;2.43;2.17;;;16.20;99.90;;;16.77;53.59;101864.63;4940726;28;104004;-62
2021/05/28 01:20:04;;;;;;;5.53;5.07;;;16.20;99.90;;;16.78;53.58;101871.72;4958634;28;97000;-62
2021/05/28 01:22:30;;;;;;;6.13;4.60;;;16.20;99.90;;;16.75;53.31;101871.81;4945278;28;98271;-62
2021/05/28 01:25:00;;;;;;;5.97;3.60;;;16.10;99.90;;;16.74;53.52;101870.09;4970377;28;107413;-62
2021/05/28 01:27:30;;;;;;;5.07;4.33;;;16.10;99.90;;;16.70;53.47;101873.81;4976493;28;97512;-62
2021/05/28 01:29:56;;;;;;;2.40;2.17;;;16.00;99.90;;;16.69;53.82;101872.09;4951258;28;97301;-63
2021/05/28 01:32:22;;;;;;;2.47;2.20;;;16.10;99.90;;;16.70;53.55;101871.16;4944869;28;102043;-63
2021/05/28 01:34:49;;;;;;;3.60;2.23;;;16.20;99.90;;;16.72;53.48;101879.94;4939435;28;100318;-62
2021/05/28 01:37:15;;;;;;;3.07;2.77;;;16.20;99.90;;;16.74;53.35;101874.56;4944455;28;104192;-62
2021/05/28 01:39:50;;;;;;;1.97;1.57;;;16.20;99.90;;;16.74;53.61;101867.44;4953761;28;96980;-62
2021/05/28 01:42:17;;;;;;;2.60;1.80;;;16.20;99.90;;;16.75;53.29;101865.63;4918465;28;97568;-62
2021/05/28 01:44:46;;;;;;;5.00;3.87;;;16.30;99.90;;;16.74;53.22;101864.75;4936778;28;100201;-62
2021/05/28 01:47:13;;;;;;;4.70;4.20;;;16.20;99.90;;;16.71;53.41;101870.22;4967669;28;97551;-62
2021/05/28 01:49:40;;;;;;;5.97;4.70;;;16.10;99.90;;;16.67;53.55;101868.63;4966043;28;96924;-62
2021/05/28 01:52:08;;;;;;;3.20;2.63;;;16.00;99.90;;;16.65;53.61;101867.81;4955312;28;97863;-61
2021/05/28 01:54:37;;;;;;;4.40;3.83;;;16.10;99.90;;;16.65;53.66;101862.47;4949049;28;97589;-62
2021/05/28 01:57:04;;;;;;;2.43;1.83;;;16.10;99.90;;;16.65;53.46;101865.13;4959777;28;97112;-62
2021/05/28 01:59:30;;;;;;;2.07;1.63;;;16.10;99.90;;;16.68;53.63;101870.38;4933321;28;97716;-60
2021/05/28 02:01:56;;;;;;;2.70;2.00;;;16.20;99.90;;;16.69;53.40;101861.44;4957969;28;97708;-60
2021/05/28 02:04:23;;;;;;;2.70;2.20;;;16.20;99.90;;;16.69;53.51;101861.44;4948491;28;97276;-60
2021/05/28 02:06:50;;;;;;;2.83;2.17;;;16.20;99.90;;;16.68;53.31;101875.69;4955820;28;97243;-60
2021/05/28 02:09:17;;;;;;;5.53;4.63;;;16.10;99.90;;;16.63;53.59;101867.84;4947710;28;103242;-60
2021/05/28 02:11:43;;;;;;;6.57;3.93;;;16.00;99.90;;;16.57;53.72;101868.09;4956191;28;97667;-59
2021/05/28 02:14:09;;;;;;;6.43;5.20;;;15.80;99.90;;;16.50;53.93;101865.78;4949430;28;97121;-59
2021/05/28 02:16:37;;;;;;;3.50;2.17;;;15.70;99.90;;;16.47;54.09;101865.88;4967394;28;101697;-60
2021/05/28 02:19:04;;;;;;;2.27;2.07;;;15.70;99.90;;;16.47;53.83;101865.88;4965946;28;97411;-60
2021/05/28 02:21:30;;;;;;;3.53;2.53;;;15.80;99.90;;;16.48;53.92;101871.13;4966352;28;99405;-61
2021/05/28 02:23:57;;;;;;;3.10;2.00;;;15.90;99.90;;;16.49;53.98;101869.34;4965500;28;102881;-61
2021/05/28 02:26:23;;;;;;;6.20;4.53;;;15.90;99.90;;;16.50;53.70;101876.44;4949787;28;96804;-61
2021/05/28 02:28:49;;;;;;;8.63;6.33;;;15.90;99.90;;;16.50;53.72;101876.44;4940607;28;97232;-61
2021/05/28 02:31:15;;;;;;;10.20;7.47;;;15.90;99.90;;;16.49;53.93;101885.31;4947967;28;109765;-61
2021/05/28 02:33:41;;;;;;;8.23;6.97;;;15.80;99.90;;;16.49;53.84;101890.66;4948461;28;98573;-61
2021/05/28 02:36:07;;;;;;;9.97;7.43;;;15.80;99.90;;;16.49;54.08;101891.53;4985824;28;97331;-59
2021/05/28 02:38:34;;;;;;;4.83;3.77;;;15.80;99.90;;;16.49;53.81;101895.97;4967204;28;97280;-60
2021/05/28 02:41:00;;;;;;;3.30;2.57;;;15.80;99.90;;;16.49;53.99;101903.97;4950447;28;101831;-61
2021/05/28 02:43:26;;;;;;;2.60;2.40;;;15.80;99.90;;;16.48;53.83;101894.25;4923837;28;97277;-59
2021/05/28 02:45:53;;;;;;;2.10;1.87;;;15.80;99.90;;;16.49;53.92;101895.97;4954869;28;96822;-61
2021/05/28 02:48:19;;;;;;;1.90;1.57;;;15.90;99.90;;;16.53;53.92;101897.59;4966481;28;97201;-61
2021/05/28 02:50:47;;;;;;;1.60;1.43;;;16.00;99.90;;;16.60;53.67;101891.94;4934485;28;104976;-59
2021/05/28 02:53:14;;;;;;;5.17;3.00;;;16.20;99.90;;;16.63;53.43;101888.28;4954878;28;98451;-61
2021/05/28 02:55:39;;;;;;;1.67;1.57;;;16.10;99.90;;;16.67;53.58;101892.59;4958506;28;97162;-61
2021/05/28 02:58:06;;;;;;;2.80;2.43;;;16.20;99.90;;;16.68;53.65;101897.00;4951628;28;100150;-61
2021/05/28 03:00:32;;;;;;;4.60;2.60;;;16.20;99.60;;;16.66;53.64;101893.50;4962557;28;97907;-62
2021/05/28 03:02:58;;;;;;;4.03;2.87;;;16.10;99.50;;;16.64;53.38;101893.56;4953023;28;100608;-60
2021/05/28 03:05:24;;;;;;;3.73;2.53;;;16.00;99.90;;;16.62;53.67;101897.22;4947186;28;97342;-60
2021/05/28 03:07:50;;;;;;;2.77;2.23;;;16.00;99.60;;;16.57;53.62;101893.88;4957379;28;98119;-60
2021/05/28 03:10:16;;;;;;;1.67;1.33;;;15.90;99.90;;;16.55;53.59;101891.28;4955553;28;98698;-61
2021/05/28 03:12:42;;;;;;;7.70;5.87;;;15.90;99.90;;;16.56;53.53;101897.47;4951187;28;97994;-61
2021/05/28 03:15:10;;;;;;;5.70;4.43;;;15.90;99.90;;;16.54;53.53;101894.88;4952930;28;96438;-61
2021/05/28 03:17:40;;;;;;;4.30;2.27;;;15.90;99.60;;;16.51;53.83;101892.34;4979721;28;103816;-61
2021/05/28 03:20:15;;;;;;;2.80;1.70;;;15.80;99.90;;;16.50;53.63;101889.75;4951726;28;100694;-60
2021/05/28 03:22:41;;;;;;;5.03;3.80;;;15.80;99.90;;;16.43;53.64;101889.13;4943251;28;100219;-61
2021/05/28 03:25:11;;;;;;;8.40;5.20;;;15.70;99.90;;;16.39;53.81;101894.63;4983627;28;100844;-61
2021/05/28 03:27:37;;;;;;;9.87;7.40;;;15.50;99.90;;;16.31;53.87;101900.25;4947049;28;98257;-61
2021/05/28 03:30:07;;;;;;;5.87;4.07;;;15.40;99.90;;;16.28;54.41;101909.22;4956661;28;97283;-59
2021/05/28 03:32:34;;;;;;;3.83;2.10;;;15.40;99.90;;;16.25;54.33;101913.81;4945979;28;99334;-62
2021/05/28 03:34:59;;;;;;;4.37;3.97;;;15.50;99.90;;;16.28;54.54;101911.91;4932468;28;97055;-61
2021/05/28 03:37:26;;;;;;;4.83;3.40;;;15.60;99.90;;;16.29;54.14;101910.97;4943297;28;97526;-62
2021/05/28 03:39:52;;;;;;;5.60;4.30;;;15.70;99.90;;;16.28;54.45;101919.88;4988569;28;99044;-60
2021/05/28 03:42:19;;;;;;;3.37;2.63;;;15.60;99.90;;;16.26;54.45;101920.88;4962768;28;97384;-61
2021/05/28 03:44:46;;;;;;;3.30;2.10;;;15.60;99.90;;;16.28;54.44;101927.88;4965546;28;96869;-61
2021/05/28 03:47:13;;;;;;;1.70;1.60;;;15.70;99.90;;;16.32;54.08;101925.94;4950934;28;97383;-61
2021/05/28 03:49:41;;;;;;;1.90;1.27;;;15.80;99.90;;;16.41;54.10;101936.25;4948666;28;97526;-61
2021/05/28 03:52:08;;;;;;;1.67;1.57;;;16.00;99.90;;;16.49;53.93;101933.25;4953198;28;99623;-62
2021/05/28 03:54:34;;;;;;;5.13;4.30;;;16.10;99.90;;;16.53;53.52;101930.44;4950024;28;97133;-62
2021/05/28 03:57:00;;;;;;;5.07;4.40;;;16.10;98.50;;;16.45;53.51;101932.53;4969101;28;99938;-61
2021/05/28 03:59:26;;;;;;;4.30;3.90;;;15.80;98.90;;;16.42;53.70;101942.44;4945043;28;99552;-62
2021/05/28 04:01:52;;;;;;;1.87;1.77;;;15.70;99.60;;;16.39;54.04;101945.22;4956519;28;97791;-62
2021/05/28 04:04:18;;;;;;;2.17;1.50;;;15.70;99.40;;;16.35;53.85;101942.69;4948198;28;97567;-59
2021/05/28 04:06:43;;;;;;;3.70;2.73;;;15.70;99.90;;;16.35;53.92;101948.03;4949392;28;96984;-62
2021/05/28 04:09:09;;;;;;;2.70;1.67;;;15.70;99.90;;;16.35;54.03;101942.69;4974933;28;106616;-61
2021/05/28 04:11:35;;;;;;;2.20;2.00;;;15.80;99.90;;;16.38;53.82;101946.16;4962979;28;98244;-61
2021/05/28 04:14:01;;;;;;;2.17;1.80;;;15.80;99.40;;;16.38;53.66;101951.47;4970846;28;97002;-61
2021/05/28 04:16:27;;;;;;;1.93;1.73;;;15.70;98.70;;;16.36;53.81;101955.09;4930434;28;97552;-61
2021/05/28 04:18:52;;;;;;;1.83;1.40;;;15.70;99.70;;;16.38;54.04;101948.81;4948271;28;100076;-62
2021/05/28 04:21:18;;;;;;;3.60;2.73;;;15.70;99.90;;;16.40;53.90;101949.63;4967939;28;106799;-60
2021/05/28 04:23:44;;;;;;;2.30;1.93;;;15.80;99.70;;;16.43;53.95;101954.81;4959490;28;97038;-60
2021/05/28 04:26:10;;;;;;;3.27;2.23;;;15.80;99.90;;;16.43;53.87;101954.81;4950994;28;97455;-59
2021/05/28 04:28:36;;;;;;;3.47;3.10;;;15.80;99.90;;;16.42;53.89;101948.63;4950556;28;98273;-61
2021/05/28 04:31:02;;;;;;;3.40;2.57;;;15.70;99.00;;;16.45;53.70;101947.63;4953767;28;110317;-62
2021/05/28 04:33:28;;;;;;;1.40;1.30;;;15.90;99.60;;;16.46;53.71;101946.72;4948713;28;97277;-60
2021/05/28 04:35:54;;;;;;;5.03;3.30;;;15.90;99.90;;;16.44;53.43;101949.44;4949261;28;97577;-59
2021/05/28 04:38:20;;;;;;;9.10;6.00;;;15.80;98.50;;;16.34;52.80;101948.91;4986045;28;97714;-62
2021/05/28 04:40:48;;;;;;;3.10;2.83;;;15.50;98.80;;;16.28;53.83;101951.84;4946038;28;101234;-62
2021/05/28 04:43:14;;;;;;;5.30;3.73;;;15.40;99.90;;;16.22;54.00;101953.88;4972184;28;97327;-61
2021/05/28 04:45:40;;;;;;;6.80;5.53;;;15.30;99.90;;;16.16;54.08;101957.63;4963357;28;97384;-61
2021/05/28 04:48:06;;;;;;;5.20;4.70;;;15.20;99.90;;;16.10;54.16;101962.34;4956089;28;98709;-61
2021/05/28 04:50:32;;;;;;;8.57;7.63;;;15.10;99.90;;;16.08;54.53;101959.72;4941583;28;99219;-62
2021/05/28 04:53:02;;;;;;;4.40;3.43;;;15.20;99.90;;;16.09;54.52;101961.47;4942575;28;97523;-60
2021/05/28 04:55:29;;;;;;;4.67;3.80;;;15.30;99.90;;;16.10;54.59;101963.19;4957614;28;97063;-61
2021/05/28 04:57:55;;;;;;;10.03;8.43;;;15.30;99.90;;;16.11;54.46;101964.94;4979282;28;97231;-62
2021/05/28 05:00:22;;;;;;;12.90;9.53;;;15.30;99.90;;;16.12;54.69;101974.66;4940874;28;98783;-64
2021/05/28 05:02:48;;;;;;;11.30;9.60;;;15.30;99.90;;;16.13;54.28;101973.72;4970652;28;96890;-61
2021/05/28 05:05:16;;;;;;;11.47;9.63;;;15.40;99.90;;;16.14;53.95;101980.78;4944716;28;97269;-61
2021/05/28 05:07:43;;;;;;;11.53;9.67;;;15.40;99.90;;;16.09;53.55;101977.44;4947699;28;100595;-61
2021/05/28 05:10:10;;;;;;;12.07;9.80;;;15.30;99.90;;;15.97;53.92;101983.22;4946522;28;99008;-60
2021/05/28 05:12:38;;;;;;;13.23;10.23;;;15.10;99.90;;;15.88;54.36;101980.88;4964035;28;97151;-61
2021/05/28 05:15:05;;;;;;;12.90;9.97;;;15.00;99.90;;;15.87;54.55;101984.47;4952895;28;97365;-61
2021/05/28 05:17:31;;;;;;;11.33;10.20;;;15.00;99.90;;;15.78;54.78;101983.03;4980058;28;99434;-61
2021/05/28 05:19:56;;;;;;;15.17;10.87;;;14.90;99.90;;;15.70;54.57;101991.28;4972940;28;107744;-62
2021/05/28 05:22:22;;;;;;;15.43;11.30;;;14.90;99.90;;;15.67;55.54;101975.44;4962779;28;97225;-62
2021/05/28 05:24:48;;;;;;;14.03;11.00;;;14.90;99.90;;;15.65;55.60;101987.06;4973958;28;97070;-62
2021/05/28 05:27:14;;;;;;;16.33;11.63;;;14.90;99.90;;;15.63;55.60;101981.78;4965232;28;99569;-59
2021/05/28 05:29:40;;;;;;;19.03;12.40;;;14.90;99.90;;;15.55;55.65;101991.78;4951548;28;97130;-61
2021/05/28 05:32:06;;;;;;;15.90;12.63;;;14.80;99.90;;;15.24;56.04;101996.44;4966086;28;97753;-62
2021/05/28 05:34:32;;;;;;;16.80;13.73;;;14.60;99.90;;;14.97;57.20;101996.44;4953721;28;97515;-61
2021/05/28 05:37:01;;;;;;;17.53;13.70;;;14.40;99.90;;;14.85;58.34;102003.00;4950005;28;97602;-62
2021/05/28 05:39:29;;;;;;;22.30;17.67;;;14.30;99.90;;;15.00;58.21;102000.75;4967756;28;99328;-59
2021/05/28 05:41:55;;;;;;;23.47;17.50;;;14.30;99.90;;;15.02;58.09;101999.78;4953251;28;97030;-61
2021/05/28 05:44:20;;;;;;;32.40;19.90;;;14.30;99.90;;;15.14;57.94;102004.69;4951776;28;97865;-63
2021/05/28 05:46:48;;;;;;;31.53;21.57;;;14.40;99.90;;;15.20;57.43;102005.44;4951096;28;103631;-61
2021/05/28 05:49:14;;;;;;;30.70;22.70;;;14.50;99.90;;;14.97;58.37;102008.84;4936858;28;99069;-61
2021/05/28 05:51:40;;;;;;;31.53;23.67;;;14.40;99.90;;;14.81;58.87;102013.78;4950655;28;96981;-59
2021/05/28 05:54:06;;;;;;;31.40;23.07;;;14.30;99.90;;;14.76;59.26;102016.59;4956568;28;97554;-60
2021/05/28 05:56:32;;;;;;;30.90;22.53;;;14.20;99.90;;;14.70;59.79;102015.91;4948389;28;99320;-62
2021/05/28 05:58:58;;;;;;;32.90;22.80;;;14.10;99.90;;;14.75;60.33;102013.97;4936381;28;97597;-61
2021/05/28 06:01:24;;;;;;;30.80;23.20;;;14.20;99.90;;;14.85;59.57;102020.72;4954229;28;96943;-60
2021/05/28 06:03:51;;;;;;;31.60;23.40;;;14.20;99.90;;;14.99;58.90;102013.19;4953895;28;96888;-61
2021/05/28 06:06:17;;;;;;;27.23;21.33;;;14.40;99.90;;;15.18;58.19;102014.31;4955786;28;99483;-62
2021/05/28 06:08:43;;;;;;;6.03;4.57;;;14.60;99.90;;;15.32;57.38;102015.63;4945943;28;97679;-59
2021/05/28 06:11:08;;;;;;;27.17;21.40;;;14.70;99.90;;;15.47;57.02;102012.44;4972695;28;97302;-61
2021/05/28 06:13:34;;;;;;;5.63;3.97;;;14.90;99.90;;;15.72;56.28;102005.38;4950179;28;97316;-61
2021/05/28 06:16:00;;;;;;;26.83;20.70;;;15.30;99.90;;;15.88;55.81;102015.47;4955043;28;100876;-62
2021/05/28 06:18:26;;;;;;;9.23;7.63;;;15.50;99.90;;;16.04;55.25;102016.66;4951774;28;98161;-63
2021/05/28 06:20:52;;;;;;;9.33;6.27;;;15.70;99.90;;;16.28;54.57;102021.06;4954771;28;96831;-63
2021/05/28 06:23:18;;;;;;;7.87;6.10;;;16.00;99.90;;;16.52;53.99;102018.41;4971499;28;97120;-63
2021/05/28 06:25:46;;;;;;;3.97;3.33;;;16.40;99.90;;;16.75;53.09;102020.16;4955218;28;100504;-62
2021/05/28 06:28:13;;;;;;;23.30;16.67;;;16.70;99.90;;;16.82;52.62;102022.53;4958559;28;96884;-62
2021/05/28 06:30:39;;;;;;;4.20;3.57;;;16.80;99.90;;;16.99;52.32;102027.19;4964851;28;97706;-61
2021/05/28 06:33:06;;;;;;;4.17;3.23;;;16.90;99.90;;;17.19;51.91;102021.03;4982631;28;96784;-62
2021/05/28 06:35:33;;;;;;;5.13;3.47;;;17.20;99.50;;;17.37;51.35;102025.59;4965508;28;99707;-61
2021/05/28 06:38:00;;;;;;;3.90;3.50;;;17.40;99.00;;;17.52;51.05;102024.94;4951886;28;97033;-63
2021/05/28 06:40:26;;;;;;;12.30;10.73;;;17.60;98.60;;;17.52;50.70;102022.28;4946557;28;96740;-62
2021/05/28 06:42:52;;;;;;;6.93;5.50;;;17.50;97.20;;;17.47;51.19;102021.59;4953897;28;97075;-63
2021/05/28 06:45:18;;;;;;;4.67;3.73;;;17.40;98.50;;;17.49;51.02;102024.19;4953248;28;97599;-63
2021/05/28 06:47:47;;;;;;;14.10;11.70;;;17.30;98.90;;;17.45;50.83;102030.59;4967892;28;97420;-62
2021/05/28 06:50:16;;;;;;;13.70;11.13;;;17.30;97.80;;;17.20;48.58;102041.41;4949451;28;97031;-62
2021/05/28 06:52:43;;;;;;;15.57;12.87;;;16.90;97.00;;;16.82;50.88;102033.19;4968204;28;96970;-62
2021/05/28 06:55:10;;;;;;;17.40;12.30;;;16.50;98.90;;;16.82;51.43;102027.88;4950843;28;98953;-62
2021/05/28 06:57:37;;;;;;;16.20;13.37;;;16.40;99.50;;;16.72;51.05;102037.16;4965491;28;98141;-62
2021/05/28 07:00:09;;;;;;;17.50;13.30;;;16.30;99.10;;;16.66;52.66;102037.38;4966850;28;97311;-63
2021/05/28 07:02:36;;;;;;;15.63;12.40;;;16.20;99.80;;;16.53;52.58;102041.44;4951647;28;97007;-62
2021/05/28 07:05:05;;;;;;;17.03;13.10;;;16.10;99.90;;;16.46;52.88;102045.25;4955415;28;97986;-62
2021/05/28 07:07:31;;;;;;;16.87;14.07;;;16.00;99.90;;;16.16;52.13;102037.50;4946255;28;101611;-62
2021/05/28 07:09:56;;;;;;;18.60;14.07;;;15.80;99.90;;;16.00;52.84;102036.31;4956822;28;98573;-61
2021/05/28 07:12:22;;;;;;;4.50;4.10;;;15.60;99.90;;;16.23;54.34;102044.34;4949305;28;97033;-63
2021/05/28 07:14:48;;;;;;;19.17;14.53;;;15.80;99.90;;;16.25;54.22;102047.81;4952813;28;98686;-62
2021/05/28 07:17:14;;;;;;;18.83;14.70;;;15.90;99.90;;;16.35;53.39;102048.34;4954317;28;97065;-62
2021/05/28 07:19:40;;;;;;;17.30;14.10;;;16.00;99.90;;;16.44;53.19;102047.97;4949388;28;97644;-63
2021/05/28 07:22:06;;;;;;;17.47;13.90;;;16.10;99.90;;;16.45;52.07;102051.50;4953542;28;97267;-62
2021/05/28 07:24:31;;;;;;;17.63;13.40;;;16.20;99.80;;;16.46;52.86;102053.25;4961748;28;100823;-62
2021/05/28 07:26:57;;;;;;;5.53;4.83;;;16.20;99.70;;;16.44;53.73;102055.09;4950478;28;98198;-63
2021/05/28 07:29:23;;;;;;;6.23;5.63;;;16.10;99.90;;;16.65;53.01;102047.16;4930608;28;97272;-62
2021/05/28 07:31:49;;;;;;;17.60;12.00;;;16.50;99.90;;;16.83;52.69;102050.94;4968757;28;97017;-62
2021/05/28 07:34:15;;;;;;;14.60;12.47;;;16.80;99.80;;;16.83;53.05;102044.72;4951867;28;100171;-62
2021/05/28 07:36:41;;;;;;;14.93;12.17;;;16.80;99.70;;;16.86;51.67;102056.13;4948053;28;100469;-61
2021/05/28 07:39:07;;;;;;;14.60;12.40;;;16.70;99.00;;;16.81;52.19;102052.78;4940192;28;97284;-62
2021/05/28 07:41:35;;;;;;;17.93;12.53;;;16.60;99.40;;;16.76;52.08;102046.75;4950585;28;97417;-63
2021/05/28 07:44:00;;;;;;;16.13;11.77;;;16.60;99.40;;;16.78;52.74;102047.59;4952510;28;98975;-62
2021/05/28 07:46:26;;;;;;;16.43;12.47;;;16.50;99.90;;;16.80;52.61;102045.72;4965534;28;98959;-62
2021/05/28 07:48:52;;;;;;;24.73;15.23;;;16.60;99.90;;;16.89;51.89;102045.34;4942744;28;97414;-60
2021/05/28 07:51:18;;;;;;;16.90;12.37;;;16.80;99.10;;;16.95;52.14;102045.09;4965318;28;96970;-63
2021/05/28 07:53:44;;;;;;;15.40;11.20;;;16.80;99.30;;;17.02;51.87;102044.84;4965039;28;100737;-62
2021/05/28 07:56:10;;;;;;;15.33;10.97;;;16.90;99.20;;;17.02;51.75;102044.84;4948868;28;99719;-62
2021/05/28 07:58:36;;;;;;;16.60;11.30;;;17.00;98.60;;;17.13;51.40;102055.94;4948966;28;99872;-63
2021/05/28 08:01:03;;;;;;;5.23;4.40;;;17.00;98.80;;;17.27;51.70;102047.38;4966790;28;97543;-62
2021/05/28 08:03:29;;;;;;;5.83;4.53;;;17.20;98.90;;;17.41;51.02;102047.69;4947299;28;98707;-62
2021/05/28 08:05:55;;;;;;;13.73;10.47;;;17.40;98.40;;;17.48;50.17;102043.78;4934149;28;99962;-63
2021/05/28 08:08:25;;;;;;;14.87;11.63;;;17.50;97.80;;;17.47;49.23;102042.06;4946868;28;97068;-65
2021/05/28 08:10:51;;;;;;;12.53;10.33;;;17.50;96.90;;;17.59;50.42;102056.69;4943127;28;97185;-62
2021/05/28 08:13:17;;;;;;;11.33;10.13;;;17.60;97.80;;;17.49;50.27;102042.84;4951969;28;106029;-61
2021/05/28 08:15:43;;;;;;;14.30;10.73;;;17.40;97.30;;;17.29;50.34;102054.38;4948339;28;98505;-62
2021/05/28 08:18:09;;;;;;;8.50;7.27;;;17.10;97.90;;;17.25;51.50;102058.13;4953830;28;97217;-62
2021/05/28 08:20:35;;;;;;;6.97;5.53;;;17.00;98.90;;;17.40;51.10;102054.81;4977022;28;97445;-62
2021/05/28 08:23:01;;;;;;;12.23;9.57;;;17.30;98.30;;;17.33;50.39;102049.78;4949162;28;99940;-62
2021/05/28 08:25:29;;;;;;;10.97;8.60;;;17.20;97.90;;;17.20;51.33;102054.75;4947275;28;99005;-62
2021/05/28 08:27:55;;;;;;;9.97;8.47;;;17.00;98.50;;;17.02;50.51;102055.50;4976714;28;97530;-62
2021/05/28 08:30:22;;;;;;;10.47;8.47;;;16.80;98.20;;;17.08;51.55;102050.81;4947061;28;97407;-65
2021/05/28 08:32:49;;;;;;;12.83;9.50;;;16.90;99.10;;;17.06;51.14;102047.31;4951520;28;100605;-62
2021/05/28 08:35:15;;;;;;;11.10;8.93;;;16.90;98.20;;;16.99;51.42;102056.50;4951667;28;100275;-62
2021/05/28 08:37:41;;;;;;;10.63;7.43;;;16.80;98.60;;;16.99;50.59;102055.63;4947588;28;97388;-62
2021/05/28 08:40:09;;;;;;;10.47;8.83;;;16.80;98.10;;;16.90;51.60;102052.41;4952702;28;97462;-61
2021/05/28 08:42:36;;;;;;;12.63;10.30;;;16.70;98.90;;;16.93;51.63;102046.09;4929899;28;100858;-62
2021/05/28 08:45:05;;;;;;;11.20;9.07;;;16.70;98.90;;;16.87;52.08;102049.88;4934313;28;100420;-63
2021/05/28 08:47:30;;;;;;;9.20;8.20;;;16.70;99.20;;;16.91;52.81;102043.47;4963703;28;98932;-60
2021/05/28 08:49:56;;;;;;;10.67;8.93;;;16.80;99.70;;;17.02;51.41;102050.19;4950435;28;102259;-63
2021/05/28 08:52:23;;;;;;;10.67;8.73;;;16.90;98.20;;;17.01;51.41;102048.44;4932443;28;98820;-64
2021/05/28 08:54:50;;;;;;;11.67;8.60;;;16.90;98.50;;;17.02;51.75;102055.50;4948198;28;99249;-61
2021/05/28 08:57:22;;;;;;;10.87;8.23;;;16.90;99.00;;;16.94;50.41;102048.72;4951386;28;96944;-62
2021/05/28 08:59:49;;;;;;;9.20;7.87;;;16.80;98.10;;;17.00;50.68;102057.38;4944504;28;96729;-62
2021/05/28 09:02:48;;;;;;;11.33;8.17;;;16.90;98.00;;;17.05;50.28;102055.38;4949248;28;100351;-62
2021/05/28 09:05:22;;;;;;;8.97;7.03;;;16.90;97.80;;;17.04;50.80;102048.31;4893579;28;104566;-63
2021/05/28 09:08:01;;;;;;;11.37;7.50;;;16.90;97.90;;;17.04;49.15;102053.66;4956751;28;96920;-63
2021/05/28 09:10:36;;;;;;;9.33;6.80;;;16.90;97.00;;;17.03;50.77;102051.91;4937342;28;97550;-62
2021/05/28 09:13:22;;;;;;;10.40;6.97;;;16.90;98.00;;;17.13;51.48;102042.63;4949349;28;99209;-61
2021/05/28 09:16:06;;;;;;;10.13;7.53;;;17.00;98.50;;;17.23;51.30;102038.66;4939056;28;103378;-62
2021/05/28 09:18:47;;;;;;;14.83;7.30;;;17.10;98.30;;;17.18;49.38;102045.94;4944867;28;97236;-62
2021/05/28 09:21:35;;;;;;;10.47;6.77;;;17.10;96.90;;;17.10;50.01;102040.09;4984681;28;96810;-62
2021/05/28 09:24:07;;;;;;;7.80;7.00;;;16.90;97.40;;;17.01;49.10;102027.13;4940453;28;102222;-62
2021/05/28 09:26:35;;;;;;;8.67;7.10;;;16.90;96.90;;;17.19;49.90;102031.69;4946119;28;98152;-59
2021/05/28 09:29:01;;;;;;;9.57;7.07;;;17.10;97.70;;;17.21;50.70;102029.81;4966628;28;97127;-63
2021/05/28 09:31:29;;;;;;;7.20;6.20;;;17.10;97.70;;;17.24;50.68;102032.38;4965289;28;97322;-62
2021/05/28 09:33:57;;;;;;;8.33;6.10;;;17.10;97.50;;;17.19;49.87;102034.34;4957932;28;97773;-62
2021/05/28 09:36:26;;;;;;;7.33;5.43;;;17.10;97.40;;;17.23;50.50;102033.31;4950134;28;99660;-63
2021/05/28 09:39:05;;;;;;;6.80;5.90;;;17.10;98.00;;;17.23;50.53;102038.66;4949273;28;97031;-62
2021/05/28 09:41:51;;;;;;;7.00;5.50;;;17.10;97.90;;;17.18;50.47;102025.50;4963452;28;97029;-62
2021/05/28 09:44:29;;;;;;;6.43;5.10;;;17.00;97.20;;;17.30;49.59;102025.91;4955961;28;99360;-62
2021/05/28 09:47:19;;;;;;;7.07;5.40;;;17.10;97.60;;;17.36;50.86;102018.53;4953257;28;102851;-62
2021/05/28 09:49:51;;;;;;;5.40;4.83;;;17.20;97.90;;;17.54;50.15;102016.88;4951306;28;96835;-62
2021/05/28 09:52:18;;;;;;;4.77;4.30;;;17.50;97.40;;;17.63;49.25;102015.59;4982110;28;102120;-62
2021/05/28 09:54:57;;;;;;;7.07;5.87;;;17.60;96.90;;;17.62;49.41;102014.72;4958865;28;98696;-62
2021/05/28 09:57:33;;;;;;;7.60;6.10;;;17.60;96.80;;;17.59;49.35;102014.88;4951864;28;99224;-63
2021/05/28 10:00:07;;;;;;;6.23;5.37;;;17.50;96.90;;;17.71;48.26;102019.69;4970152;28;97405;-62
2021/05/28 10:02:36;;;;;;;6.97;5.47;;;17.70;96.30;;;17.76;49.23;102023.03;4950601;28;97068;-63
2021/05/28 10:05:05;;;;;;;5.47;4.97;;;17.70;96.20;;;17.74;49.39;102019.56;4953045;28;97619;-62
2021/05/28 10:07:31;;;;;;;4.63;4.23;;;17.70;96.70;;;17.80;49.64;102023.78;4948895;28;100252;-62
2021/05/28 10:09:57;;;;;;;4.73;4.07;;;17.80;96.70;;;17.79;49.87;102025.59;4955397;28;96976;-62